Time;durP1;ratioP1;P1;durP2;ratioP2;P2;SDS_P1;SDS_P2;PMS_P1;PMS_P2;Temp;Humidity;BMP_temperature;BMP_pressure;BME280_temperature;BME280_humidity;BME280_pressure;Samples;Min_cycle;Max_cycle;Signal;HPM_P1;HPM_P2
2023/01/30 00:02:13;;;;;;;;;;;8.30;99.90;;;;;;5049844;28;19924;-72
2023/01/30 00:04:38;;;;;;;;;;;8.30;99.90;;;;;;5049950;28;19905;-72
2023/01/30 00:07:04;;;;;;;;;;;8.30;99.90;;;;;;5051274;28;19987;-72
2023/01/30 00:09:29;;;;;;;;;;;8.30;99.90;;;;;;5049787;28;20386;-72
2023/01/30 00:11:55;;;;;;;;;;;8.40;99.90;;;;;;5052350;28;19909;-72
2023/01/30 00:14:21;;;;;;;;;;;8.40;99.90;;;;;;5051128;28;19909;-72
2023/01/30 00:16:47;;;;;;;;;;;8.40;99.90;;;;;;5036290;28;19909;-72
2023/01/30 00:19:12;;;;;;;;;;;8.40;99.90;;;;;;5047952;28;20321;-72
2023/01/30 00:21:38;;;;;;;;;;;8.40;99.90;;;;;;5045084;28;19905;-74
2023/01/30 00:24:03;;;;;;;;;;;8.40;99.90;;;;;;5044717;28;20269;-75
2023/01/30 00:26:29;;;;;;;;;;;8.40;99.90;;;;;;5034116;28;19904;-75
2023/01/30 00:28:54;;;;;;;;;;;8.40;99.90;;;;;;5051047;28;19996;-74
2023/01/30 00:31:20;;;;;;;;;;;8.40;99.90;;;;;;5051511;28;20359;-74
2023/01/30 00:33:45;;;;;;;;;;;8.40;99.90;;;;;;5049167;28;19913;-73
2023/01/30 00:36:11;;;;;;;;;;;8.40;99.90;;;;;;5046254;28;19908;-72
2023/01/30 00:38:36;;;;;;;;;;;8.40;99.90;;;;;;5051081;28;19904;-72
2023/01/30 00:41:02;;;;;;;;;;;8.40;99.90;;;;;;5034563;28;20002;-72
2023/01/30 00:49:16;;;;;;;;;;;8.40;99.90;;;;;;5039091;28;19966;-72
2023/01/30 00:51:42;;;;;;;;;;;8.40;99.90;;;;;;5051055;28;20307;-72
2023/01/30 00:54:07;;;;;;;;;;;8.40;99.90;;;;;;5050385;28;19912;-72
2023/01/30 00:56:33;;;;;;;;;;;8.30;99.90;;;;;;5051160;28;19957;-72
2023/01/30 00:58:58;;;;;;;;;;;8.40;99.90;;;;;;5050972;28;19905;-72
2023/01/30 01:01:24;;;;;;;;;;;8.40;99.90;;;;;;5039232;28;19905;-72
2023/01/30 01:03:49;;;;;;;;;;;8.40;99.90;;;;;;5047754;28;19920;-72
2023/01/30 01:06:15;;;;;;;;;;;8.30;99.90;;;;;;5049365;28;19909;-72
2023/01/30 01:08:41;;;;;;;;;;;8.40;99.90;;;;;;5051194;28;19983;-72
2023/01/30 01:11:06;;;;;;;;;;;8.30;99.90;;;;;;5038067;28;19908;-72
2023/01/30 01:13:32;;;;;;;;;;;8.30;99.90;;;;;;5046950;28;19905;-72
2023/01/30 01:15:57;;;;;;;;;;;8.40;99.90;;;;;;5042804;28;20384;-73
2023/01/30 01:18:23;;;;;;;;;;;8.30;99.90;;;;;;5050122;28;19913;-72
2023/01/30 01:20:48;;;;;;;;;;;8.30;99.90;;;;;;5050775;28;19962;-72
2023/01/30 01:23:14;;;;;;;;;;;8.30;99.90;;;;;;5045848;28;19971;-72
2023/01/30 01:25:39;;;;;;;;;;;8.30;99.90;;;;;;5045856;28;19970;-72
2023/01/30 01:28:05;;;;;;;;;;;8.20;99.90;;;;;;5049681;28;19916;-72
2023/01/30 01:30:30;;;;;;;;;;;8.30;99.90;;;;;;5046125;28;19916;-72
2023/01/30 01:32:56;;;;;;;;;;;8.30;99.90;;;;;;5046052;28;19913;-72
2023/01/30 01:35:21;;;;;;;;;;;8.20;99.90;;;;;;5050827;28;20095;-72
2023/01/30 01:37:47;;;;;;;;;;;8.20;99.90;;;;;;5042576;28;19909;-72
2023/01/30 01:43:23;;;;;;;;;;;8.20;99.90;;;;;;5045020;28;19978;-72
2023/01/30 01:45:52;;;;;;;;;;;8.20;99.90;;;;;;5044603;28;19915;-72
2023/01/30 01:48:21;;;;;;;;;;;8.20;99.90;;;;;;5050123;28;20263;-72
2023/01/30 01:50:47;;;;;;;;;;;8.20;99.90;;;;;;5027606;28;20248;-72
2023/01/30 01:53:13;;;;;;;;;;;8.20;99.90;;;;;;5050838;28;20307;-72
2023/01/30 01:55:40;;;;;;;;;;;8.20;99.90;;;;;;5031890;28;19904;-72
2023/01/30 01:58:10;;;;;;;;;;;8.20;99.90;;;;;;5044501;28;19916;-72
2023/01/30 02:00:35;;;;;;;;;;;8.20;99.90;;;;;;5045309;28;19916;-72
2023/01/30 02:03:05;;;;;;;;;;;8.20;99.90;;;;;;5042506;28;19962;-72
2023/01/30 02:05:32;;;;;;;;;;;8.20;99.90;;;;;;5050023;28;20313;-72
2023/01/30 02:08:13;;;;;;;;;;;8.20;99.90;;;;;;5045438;28;19945;-72
2023/01/30 02:10:42;;;;;;;;;;;8.20;99.90;;;;;;5048624;28;20425;-72
2023/01/30 02:13:08;;;;;;;;;;;8.20;99.90;;;;;;5048542;28;19909;-72
2023/01/30 02:15:34;;;;;;;;;;;8.20;99.90;;;;;;5039023;28;19939;-72
2023/01/30 02:17:59;;;;;;;;;;;8.20;99.90;;;;;;5046294;28;20394;-74
2023/01/30 02:20:25;;;;;;;;;;;8.20;99.90;;;;;;5043973;28;19905;-74
2023/01/30 02:22:56;;;;;;;;;;;8.20;99.90;;;;;;5049100;28;19924;-75
2023/01/30 02:25:31;;;;;;;;;;;8.20;99.90;;;;;;5042850;28;19913;-74
2023/01/30 02:28:13;;;;;;;;;;;8.30;99.90;;;;;;5049956;28;19913;-75
2023/01/30 02:30:59;;;;;;;;;;;8.30;99.90;;;;;;5039430;28;20258;-74
2023/01/30 02:33:32;;;;;;;;;;;8.30;99.90;;;;;;5044052;28;19909;-75
2023/01/30 02:36:18;;;;;;;;;;;8.40;99.90;;;;;;5045352;28;19909;-74
2023/01/30 02:38:50;;;;;;;;;;;8.40;99.90;;;;;;5046106;28;19923;-75
2023/01/30 02:41:27;;;;;;;;;;;8.40;99.90;;;;;;5037009;28;19905;-74
2023/01/30 02:44:04;;;;;;;;;;;8.40;99.90;;;;;;5047887;28;19924;-75
2023/01/30 02:46:32;;;;;;;;;;;8.40;99.90;;;;;;5041026;28;19905;-74
2023/01/30 02:49:15;;;;;;;;;;;8.40;99.90;;;;;;5045887;28;20003;-74
2023/01/30 02:51:41;;;;;;;;;;;8.40;99.90;;;;;;5052414;28;20379;-74
2023/01/30 02:54:09;;;;;;;;;;;8.40;99.90;;;;;;5037914;28;20438;-74
2023/01/30 02:56:45;;;;;;;;;;;8.40;99.90;;;;;;5043154;28;19909;-74
2023/01/30 02:59:11;;;;;;;;;;;8.40;99.90;;;;;;5039118;28;19940;-75
2023/01/30 03:01:42;;;;;;;;;;;8.40;99.90;;;;;;5051485;28;20113;-75
2023/01/30 03:04:07;;;;;;;;;;;8.40;99.90;;;;;;5037753;28;19916;-75
2023/01/30 03:07:02;;;;;;;;;;;8.40;99.90;;;;;;5040386;28;19963;-74
2023/01/30 03:09:50;;;;;;;;;;;8.40;99.90;;;;;;5011141;28;19909;-75
2023/01/30 03:12:27;;;;;;;;;;;8.40;99.90;;;;;;5010686;28;19905;-74
2023/01/30 03:14:52;;;;;;;;;;;8.40;99.90;;;;;;5010746;28;19996;-75
2023/01/30 03:17:19;;;;;;;;;;;8.40;99.90;;;;;;5009342;28;19909;-74
2023/01/30 03:19:45;;;;;;;;;;;8.40;99.90;;;;;;5011089;28;19905;-72
2023/01/30 03:22:10;;;;;;;;;;;8.40;99.90;;;;;;5010855;28;19909;-72
2023/01/30 03:24:36;;;;;;;;;;;8.40;99.90;;;;;;5010402;28;19921;-72
2023/01/30 03:27:06;;;;;;;;;;;8.40;99.90;;;;;;5004203;28;19929;-72
2023/01/30 03:29:32;;;;;;;;;;;8.40;99.90;;;;;;5004747;28;20008;-71
2023/01/30 03:31:58;;;;;;;;;;;8.40;99.90;;;;;;5010031;28;20001;-72
2023/01/30 03:34:23;;;;;;;;;;;8.40;99.90;;;;;;5010730;28;19916;-72
2023/01/30 03:36:49;;;;;;;;;;;8.40;99.90;;;;;;5010202;28;20390;-72
2023/01/30 03:39:14;;;;;;;;;;;8.40;99.90;;;;;;5010104;28;19909;-72
2023/01/30 03:41:40;;;;;;;;;;;8.40;99.90;;;;;;5009776;28;19912;-72
2023/01/30 03:44:05;;;;;;;;;;;8.40;99.90;;;;;;5008794;28;19922;-72
2023/01/30 03:46:31;;;;;;;;;;;8.40;99.90;;;;;;5041868;28;19916;-71
2023/01/30 03:48:57;;;;;;;;;;;8.40;99.90;;;;;;5052913;28;19951;-72
2023/01/30 03:51:22;;;;;;;;;;;8.40;99.90;;;;;;5047957;28;19943;-72
2023/01/30 03:53:47;;;;;;;;;;;8.40;99.90;;;;;;5050231;28;20374;-72
2023/01/30 03:56:13;;;;;;;;;;;8.40;99.90;;;;;;5048854;28;19919;-72
2023/01/30 03:58:38;;;;;;;;;;;8.30;99.90;;;;;;5051789;28;19912;-71
2023/01/30 04:01:04;;;;;;;;;;;8.40;99.90;;;;;;5050276;28;20035;-72
2023/01/30 04:03:29;;;;;;;;;;;8.40;99.90;;;;;;5044161;28;19927;-72
2023/01/30 04:05:55;;;;;;;;;;;8.30;99.90;;;;;;5045137;28;19928;-72
2023/01/30 04:08:20;;;;;;;;;;;8.40;99.90;;;;;;5051759;28;19912;-72
2023/01/30 04:10:46;;;;;;;;;;;8.30;99.90;;;;;;5051669;28;19916;-72
2023/01/30 04:13:11;;;;;;;;;;;8.30;99.90;;;;;;5051892;28;19926;-72
2023/01/30 04:15:37;;;;;;;;;;;8.30;99.90;;;;;;5050589;28;19915;-71
2023/01/30 04:18:02;;;;;;;;;;;8.30;99.90;;;;;;5051344;28;20268;-71
2023/01/30 04:20:28;;;;;;;;;;;8.30;99.90;;;;;;5050035;28;19916;-72
2023/01/30 04:22:54;;;;;;;;;;;8.30;99.90;;;;;;5049413;28;20331;-72
2023/01/30 04:25:20;;;;;;;;;;;8.30;99.90;;;;;;5050564;28;19912;-71
2023/01/30 04:27:45;;;;;;;;;;;8.30;99.90;;;;;;5050057;28;19916;-71
2023/01/30 04:30:11;;;;;;;;;;;8.30;99.90;;;;;;5046665;28;19952;-72
2023/01/30 04:32:36;;;;;;;;;;;8.20;99.90;;;;;;5050575;28;20007;-71
2023/01/30 04:35:02;;;;;;;;;;;8.20;99.90;;;;;;5050494;28;19968;-72
2023/01/30 04:37:28;;;;;;;;;;;8.30;99.90;;;;;;5050426;28;19912;-72
2023/01/30 04:39:53;;;;;;;;;;;8.30;99.90;;;;;;5046575;28;19912;-74
2023/01/30 04:42:19;;;;;;;;;;;8.30;99.90;;;;;;5051464;28;20324;-74
2023/01/30 04:44:44;;;;;;;;;;;8.40;99.90;;;;;;5045393;28;19957;-74
2023/01/30 04:47:10;;;;;;;;;;;8.40;99.90;;;;;;5045638;28;19928;-75
2023/01/30 04:49:35;;;;;;;;;;;8.40;99.90;;;;;;5050974;28;20354;-74
2023/01/30 04:52:00;;;;;;;;;;;8.40;99.90;;;;;;5044932;28;19915;-74
2023/01/30 04:54:26;;;;;;;;;;;8.40;99.90;;;;;;5050754;28;19909;-74
2023/01/30 04:56:51;;;;;;;;;;;8.50;99.90;;;;;;5034496;28;19909;-74
2023/01/30 04:59:17;;;;;;;;;;;8.50;99.90;;;;;;5048257;28;20379;-74
2023/01/30 05:01:43;;;;;;;;;;;8.50;99.90;;;;;;5049009;28;20415;-75
2023/01/30 05:04:08;;;;;;;;;;;8.50;99.90;;;;;;5044852;28;19921;-74
2023/01/30 05:06:34;;;;;;;;;;;8.50;99.90;;;;;;5047712;28;19923;-74
2023/01/30 05:09:00;;;;;;;;;;;8.50;99.90;;;;;;5045605;28;19939;-72
2023/01/30 05:11:27;;;;;;;;;;;8.40;99.90;;;;;;5042951;28;19917;-72
2023/01/30 05:13:53;;;;;;;;;;;8.40;99.90;;;;;;5025980;28;20477;-71
2023/01/30 05:16:20;;;;;;;;;;;8.40;99.90;;;;;;5052581;28;19913;-71
2023/01/30 05:18:45;;;;;;;;;;;8.40;99.90;;;;;;5050399;28;19908;-72
2023/01/30 05:21:12;;;;;;;;;;;8.30;99.90;;;;;;5048808;28;19905;-71
2023/01/30 05:23:37;;;;;;;;;;;8.30;99.90;;;;;;5044440;28;19913;-74
2023/01/30 05:26:03;;;;;;;;;;;8.20;99.90;;;;;;5050873;28;19967;-74
2023/01/30 05:28:29;;;;;;;;;;;8.20;99.90;;;;;;5050819;28;20362;-74
2023/01/30 05:31:04;;;;;;;;;;;8.10;99.90;;;;;;5046293;28;19987;-74
2023/01/30 05:33:30;;;;;;;;;;;8.10;99.90;;;;;;5050342;28;19949;-74
2023/01/30 05:35:55;;;;;;;;;;;8.10;99.90;;;;;;5046769;28;19952;-74
2023/01/30 05:38:21;;;;;;;;;;;8.00;99.90;;;;;;5034991;28;19908;-74
2023/01/30 05:40:47;;;;;;;;;;;8.00;99.90;;;;;;5030617;28;19927;-74
2023/01/30 05:43:12;;;;;;;;;;;7.90;99.90;;;;;;5048551;28;20450;-74
2023/01/30 05:45:38;;;;;;;;;;;7.90;99.90;;;;;;5049722;28;19908;-74
2023/01/30 05:48:03;;;;;;;;;;;7.90;99.90;;;;;;5049302;28;20379;-74
2023/01/30 05:50:30;;;;;;;;;;;7.80;99.90;;;;;;5047471;28;19962;-74
2023/01/30 05:52:55;;;;;;;;;;;7.80;99.90;;;;;;5032530;28;19905;-72
2023/01/30 05:55:21;;;;;;;;;;;7.80;99.90;;;;;;5049431;28;20221;-72
2023/01/30 05:57:46;;;;;;;;;;;7.70;99.90;;;;;;5048258;28;20232;-74
2023/01/30 06:00:12;;;;;;;;;;;7.70;99.90;;;;;;5049636;28;19955;-74
2023/01/30 06:02:37;;;;;;;;;;;7.70;99.90;;;;;;5049411;28;19905;-74
2023/01/30 06:05:03;;;;;;;;;;;7.70;99.90;;;;;;5049402;28;20015;-74
2023/01/30 06:07:28;;;;;;;;;;;7.70;99.90;;;;;;5048255;28;19916;-74
2023/01/30 06:09:54;;;;;;;;;;;7.60;99.90;;;;;;5037893;28;19999;-74
2023/01/30 06:12:19;;;;;;;;;;;7.60;99.90;;;;;;5048858;28;19905;-74
2023/01/30 06:14:45;;;;;;;;;;;7.60;99.90;;;;;;5049361;28;19905;-74
2023/01/30 06:17:10;;;;;;;;;;;7.60;99.90;;;;;;5047248;28;19978;-74
2023/01/30 06:19:36;;;;;;;;;;;7.50;99.90;;;;;;5043262;28;19906;-74
2023/01/30 06:22:02;;;;;;;;;;;7.50;99.90;;;;;;5050638;28;19939;-74
2023/01/30 06:24:27;;;;;;;;;;;7.50;99.90;;;;;;5048418;28;19913;-74
2023/01/30 06:26:53;;;;;;;;;;;7.50;99.90;;;;;;5047997;28;20376;-74
2023/01/30 06:29:18;;;;;;;;;;;7.50;99.90;;;;;;5032441;28;19951;-74
2023/01/30 06:31:44;;;;;;;;;;;7.50;99.90;;;;;;5033932;28;20429;-74
2023/01/30 06:34:10;;;;;;;;;;;7.50;99.90;;;;;;5029204;28;19955;-75
2023/01/30 06:36:36;;;;;;;;;;;7.50;99.90;;;;;;5030517;28;20000;-74
2023/01/30 06:39:01;;;;;;;;;;;7.40;99.90;;;;;;5028526;28;20039;-74
2023/01/30 06:41:27;;;;;;;;;;;7.40;99.90;;;;;;5036695;28;19913;-74
2023/01/30 06:43:52;;;;;;;;;;;7.40;99.90;;;;;;5033096;28;20421;-74
2023/01/30 06:46:18;;;;;;;;;;;7.40;99.90;;;;;;5038851;28;19909;-74
2023/01/30 06:48:43;;;;;;;;;;;7.40;99.90;;;;;;5040516;28;19917;-74
2023/01/30 06:51:09;;;;;;;;;;;7.40;99.90;;;;;;5046230;28;19943;-74
2023/01/30 06:53:34;;;;;;;;;;;7.40;99.90;;;;;;5037809;28;19917;-74
2023/01/30 06:56:00;;;;;;;;;;;7.40;99.90;;;;;;5032959;28;19975;-74
2023/01/30 06:58:25;;;;;;;;;;;7.40;99.90;;;;;;5033701;28;20382;-75
2023/01/30 07:00:51;;;;;;;;;;;7.40;99.90;;;;;;5028971;28;19913;-74
2023/01/30 07:03:17;;;;;;;;;;;7.40;99.90;;;;;;5031757;28;20279;-75
2023/01/30 07:05:43;;;;;;;;;;;7.40;99.90;;;;;;5034994;28;19905;-74
2023/01/30 07:08:10;;;;;;;;;;;7.40;99.90;;;;;;5042511;28;20241;-74
2023/01/30 07:10:35;;;;;;;;;;;7.30;99.90;;;;;;5025229;28;19938;-74
2023/01/30 07:13:01;;;;;;;;;;;7.40;99.90;;;;;;5036477;28;19916;-74
2023/01/30 07:15:27;;;;;;;;;;;7.30;99.90;;;;;;5046433;28;20368;-74
2023/01/30 07:17:53;;;;;;;;;;;7.30;99.90;;;;;;5045409;28;19916;-74
2023/01/30 07:20:20;;;;;;;;;;;7.30;99.90;;;;;;5041998;28;19916;-74
2023/01/30 07:22:52;;;;;;;;;;;7.30;99.90;;;;;;5041326;28;19919;-74
2023/01/30 07:25:18;;;;;;;;;;;7.30;99.90;;;;;;5043442;28;19995;-74
2023/01/30 07:27:54;;;;;;;;;;;7.40;99.90;;;;;;5042262;28;19919;-75
2023/01/30 07:30:20;;;;;;;;;;;7.30;99.90;;;;;;5038876;28;19970;-75
2023/01/30 07:32:53;;;;;;;;;;;7.30;99.90;;;;;;5046149;28;19944;-74
2023/01/30 07:35:19;;;;;;;;;;;7.30;99.90;;;;;;5051711;28;20407;-74
2023/01/30 07:37:46;;;;;;;;;;;7.30;99.90;;;;;;5052724;28;19996;-75
2023/01/30 07:40:11;;;;;;;;;;;7.30;99.90;;;;;;5051750;28;19927;-74
2023/01/30 07:42:37;;;;;;;;;;;7.30;99.90;;;;;;5044267;28;19983;-74
2023/01/30 07:45:02;;;;;;;;;;;7.30;99.90;;;;;;5045749;28;19913;-74
2023/01/30 07:47:29;;;;;;;;;;;7.40;99.90;;;;;;5034718;28;19905;-74
2023/01/30 07:49:55;;;;;;;;;;;7.30;99.90;;;;;;5038008;28;19921;-74
2023/01/30 07:52:20;;;;;;;;;;;7.30;99.90;;;;;;5033662;28;19934;-74
2023/01/30 07:54:46;;;;;;;;;;;7.30;99.90;;;;;;5031437;28;19908;-74
2023/01/30 07:57:11;;;;;;;;;;;7.30;99.90;;;;;;5034301;28;19956;-74
2023/01/30 07:59:37;;;;;;;;;;;7.40;99.90;;;;;;5033876;28;19912;-74
2023/01/30 08:02:02;;;;;;;;;;;7.30;99.90;;;;;;5035735;28;20284;-74
2023/01/30 08:04:28;;;;;;;;;;;7.30;99.90;;;;;;5039836;28;19916;-74
2023/01/30 08:06:53;;;;;;;;;;;7.40;99.90;;;;;;5031978;28;20368;-74
2023/01/30 08:09:19;;;;;;;;;;;7.40;99.90;;;;;;5032598;28;19936;-74
2023/01/30 08:11:44;;;;;;;;;;;7.30;99.90;;;;;;5032627;28;19905;-74
2023/01/30 08:14:10;;;;;;;;;;;7.40;99.90;;;;;;5032809;28;20374;-74
2023/01/30 08:16:37;;;;;;;;;;;7.40;99.90;;;;;;5035369;28;20345;-74
2023/01/30 08:19:03;;;;;;;;;;;7.40;99.90;;;;;;5036653;28;20390;-74
2023/01/30 08:21:29;;;;;;;;;;;7.40;99.90;;;;;;5038572;28;19927;-74
2023/01/30 08:23:54;;;;;;;;;;;7.40;99.90;;;;;;5038468;28;19916;-74
2023/01/30 08:26:20;;;;;;;;;;;7.40;99.90;;;;;;5033120;28;19924;-74
2023/01/30 08:28:45;;;;;;;;;;;7.40;99.90;;;;;;5032123;28;19912;-74
2023/01/30 08:31:11;;;;;;;;;;;7.40;99.90;;;;;;5034139;28;19911;-74
2023/01/30 08:33:37;;;;;;;;;;;7.40;99.90;;;;;;5048207;28;19913;-74
2023/01/30 08:36:03;;;;;;;;;;;7.40;99.90;;;;;;5024283;28;20281;-74
2023/01/30 08:38:28;;;;;;;;;;;7.50;99.90;;;;;;5036475;28;19912;-74
2023/01/30 08:40:55;;;;;;;;;;;7.50;99.90;;;;;;5034655;28;19909;-73
2023/01/30 08:43:21;;;;;;;;;;;7.50;99.90;;;;;;5050392;28;19917;-74
2023/01/30 08:45:46;;;;;;;;;;;7.50;99.90;;;;;;5051830;28;19980;-74
2023/01/30 08:48:12;;;;;;;;;;;7.50;99.90;;;;;;5027062;28;20363;-72
2023/01/30 08:50:37;;;;;;;;;;;7.50;99.90;;;;;;5049950;28;19916;-71
2023/01/30 08:53:07;;;;;;;;;;;7.60;99.90;;;;;;5045455;28;20348;-69
2023/01/30 08:55:33;;;;;;;;;;;7.70;99.90;;;;;;5043212;28;19912;-71
2023/01/30 08:57:59;;;;;;;;;;;7.70;99.90;;;;;;5034096;28;19905;-72
2023/01/30 09:00:25;;;;;;;;;;;7.80;99.90;;;;;;5050100;28;19917;-72
2023/01/30 09:02:57;;;;;;;;;;;7.80;99.90;;;;;;5051530;28;19927;-72
2023/01/30 09:05:23;;;;;;;;;;;7.80;99.90;;;;;;5039436;28;19905;-71
2023/01/30 09:07:48;;;;;;;;;;;7.80;99.90;;;;;;5044212;28;19904;-71
2023/01/30 09:10:14;;;;;;;;;;;7.80;99.90;;;;;;5046776;28;20348;-71
2023/01/30 09:12:40;;;;;;;;;;;7.80;99.90;;;;;;5046333;28;20595;-72
2023/01/30 09:15:06;;;;;;;;;;;7.80;99.90;;;;;;5041247;28;19976;-71
2023/01/30 09:17:31;;;;;;;;;;;7.80;99.90;;;;;;5045707;28;19959;-72
2023/01/30 09:19:57;;;;;;;;;;;7.80;99.90;;;;;;5040927;28;19912;-71
2023/01/30 09:22:22;;;;;;;;;;;7.90;99.90;;;;;;5032669;28;19913;-71
2023/01/30 09:24:48;;;;;;;;;;;7.90;99.90;;;;;;5036343;28;19920;-71
2023/01/30 09:27:13;;;;;;;;;;;7.90;99.90;;;;;;5030980;28;19909;-71
2023/01/30 09:29:39;;;;;;;;;;;8.00;99.90;;;;;;5031372;28;19905;-73
2023/01/30 09:32:04;;;;;;;;;;;8.10;99.90;;;;;;5037784;28;20002;-72
2023/01/30 09:34:30;;;;;;;;;;;8.10;99.90;;;;;;5034559;28;19909;-72
2023/01/30 09:37:02;;;;;;;;;;;8.10;99.90;;;;;;5035302;28;20463;-73
2023/01/30 09:39:27;;;;;;;;;;;8.20;99.90;;;;;;5044760;28;19905;-73
2023/01/30 09:42:05;;;;;;;;;;;8.20;99.90;;;;;;5044856;28;20095;-72
2023/01/30 09:45:00;;;;;;;;;;;8.20;99.90;;;;;;5035855;28;19913;-72
2023/01/30 09:47:26;;;;;;;;;;;8.20;99.90;;;;;;5018321;28;19937;-72
2023/01/30 09:49:51;;;;;;;;;;;8.20;99.90;;;;;;5044406;28;19917;-72
2023/01/30 09:52:33;;;;;;;;;;;8.20;99.90;;;;;;5038317;28;20386;-72
2023/01/30 09:55:01;;;;;;;;;;;8.20;99.90;;;;;;5036701;28;19916;-72
2023/01/30 09:57:27;;;;;;;;;;;8.20;99.90;;;;;;5044869;28;19908;-72
2023/01/30 09:59:52;;;;;;;;;;;8.20;99.90;;;;;;5040213;28;19909;-73
2023/01/30 10:02:26;;;;;;;;;;;8.20;99.90;;;;;;5035779;28;19920;-74
2023/01/30 10:04:54;;;;;;;;;;;8.20;99.90;;;;;;5036721;28;19990;-72
2023/01/30 10:07:25;;;;;;;;;;;8.20;99.90;;;;;;5035462;28;19967;-72
2023/01/30 10:09:58;;;;;;;;;;;8.20;99.90;;;;;;5050078;28;19912;-72
2023/01/30 10:12:39;;;;;;;;;;;8.30;99.90;;;;;;5050060;28;20287;-72
2023/01/30 10:15:40;;;;;;;;;;;8.30;99.90;;;;;;5050104;28;20362;-72
2023/01/30 10:18:08;;;;;;;;;;;8.40;99.90;;;;;;5002115;28;19999;-72
2023/01/30 10:20:36;;;;;;;;;;;8.40;99.90;;;;;;5007461;28;19940;-72
2023/01/30 10:23:07;;;;;;;;;;;8.40;99.90;;;;;;5007792;28;20526;-72
2023/01/30 10:25:35;;;;;;;;;;;8.40;99.90;;;;;;5007431;28;20270;-72
2023/01/30 10:28:19;;;;;;;;;;;8.40;99.90;;;;;;5007288;28;19964;-72
2023/01/30 10:30:46;;;;;;;;;;;8.40;99.90;;;;;;5006877;28;19988;-72
2023/01/30 10:33:18;;;;;;;;;;;8.50;99.90;;;;;;5007108;28;19913;-72
2023/01/30 10:35:56;;;;;;;;;;;8.50;99.90;;;;;;5007069;28;20413;-72
2023/01/30 10:38:30;;;;;;;;;;;8.50;99.90;;;;;;5006406;28;19920;-72
2023/01/30 10:41:18;;;;;;;;;;;8.60;99.90;;;;;;5007840;28;19917;-72
2023/01/30 10:43:46;;;;;;;;;;;8.50;99.90;;;;;;5006605;28;20032;-72
2023/01/30 10:46:15;;;;;;;;;;;8.50;99.90;;;;;;5006845;28;19909;-72
2023/01/30 10:48:59;;;;;;;;;;;8.50;99.90;;;;;;5007137;28;19968;-72
2023/01/30 10:51:47;;;;;;;;;;;8.50;99.90;;;;;;5016656;28;19917;-72
2023/01/30 10:54:15;;;;;;;;;;;8.50;99.90;;;;;;5043748;28;20004;-72
2023/01/30 10:56:44;;;;;;;;;;;8.50;99.90;;;;;;5040440;28;19917;-72
2023/01/30 10:59:25;;;;;;;;;;;8.50;99.90;;;;;;5037779;28;19948;-72
2023/01/30 11:02:15;;;;;;;;;;;8.50;99.90;;;;;;5038647;28;19915;-72
2023/01/30 11:05:09;;;;;;;;;;;8.50;99.90;;;;;;5040562;28;19916;-72
2023/01/30 11:07:35;;;;;;;;;;;8.50;99.90;;;;;;5019242;28;19987;-72
2023/01/30 11:10:00;;;;;;;;;;;8.50;99.90;;;;;;5037296;28;19916;-72
2023/01/30 11:12:26;;;;;;;;;;;8.50;99.90;;;;;;5049181;28;20390;-72
2023/01/30 11:14:53;;;;;;;;;;;8.50;99.90;;;;;;5053217;28;19923;-72
2023/01/30 11:17:19;;;;;;;;;;;8.50;99.90;;;;;;5052512;28;19904;-72
2023/01/30 11:19:53;;;;;;;;;;;8.60;99.90;;;;;;5052416;28;20013;-71
2023/01/30 11:22:19;;;;;;;;;;;8.60;99.90;;;;;;5052334;28;19905;-71
2023/01/30 11:24:45;;;;;;;;;;;8.60;99.90;;;;;;5050290;28;19913;-71
2023/01/30 11:27:15;;;;;;;;;;;8.70;99.90;;;;;;5047589;28;20377;-71
2023/01/30 11:29:41;;;;;;;;;;;8.70;99.90;;;;;;5053238;28;19947;-71
2023/01/30 11:32:26;;;;;;;;;;;8.60;99.90;;;;;;5052423;28;19948;-72
2023/01/30 11:35:01;;;;;;;;;;;8.60;99.90;;;;;;5037642;28;20057;-71
2023/01/30 11:37:30;;;;;;;;;;;8.70;99.90;;;;;;5040866;28;19904;-71
2023/01/30 11:39:55;;;;;;;;;;;8.60;99.90;;;;;;5052277;28;19934;-71
2023/01/30 11:42:23;;;;;;;;;;;8.60;99.90;;;;;;5046297;28;19952;-71
2023/01/30 11:44:54;;;;;;;;;;;8.60;99.90;;;;;;5039224;28;19959;-71
2023/01/30 11:47:26;;;;;;;;;;;8.50;99.90;;;;;;5036487;28;19928;-71
2023/01/30 11:49:54;;;;;;;;;;;8.60;99.90;;;;;;5039129;28;19921;-71
2023/01/30 11:52:24;;;;;;;;;;;8.60;99.90;;;;;;5042432;28;19904;-71
2023/01/30 11:54:51;;;;;;;;;;;8.70;99.90;;;;;;5052372;28;19911;-71
2023/01/30 11:57:18;;;;;;;;;;;8.80;99.90;;;;;;5042069;28;19915;-71
2023/01/30 11:59:43;;;;;;;;;;;8.80;99.90;;;;;;5050889;28;19909;-71
2023/01/30 12:02:18;;;;;;;;;;;8.90;99.90;;;;;;5040065;28;20319;-71
2023/01/30 12:04:45;;;;;;;;;;;8.90;99.90;;;;;;5043850;28;20028;-71
2023/01/30 12:07:14;;;;;;;;;;;8.90;99.90;;;;;;5041062;28;19951;-71
2023/01/30 12:09:39;;;;;;;;;;;8.80;99.90;;;;;;5032517;28;19909;-71
2023/01/30 12:12:28;;;;;;;;;;;8.90;99.90;;;;;;5038320;28;19905;-71
2023/01/30 12:14:59;;;;;;;;;;;8.90;99.90;;;;;;5027345;28;19909;-71
2023/01/30 12:17:41;;;;;;;;;;;8.90;99.90;;;;;;5035512;28;19905;-71
2023/01/30 12:20:09;;;;;;;;;;;8.90;99.90;;;;;;5033511;28;19955;-71
2023/01/30 12:22:43;;;;;;;;;;;9.00;99.90;;;;;;5038391;28;19959;-71
2023/01/30 12:25:08;;;;;;;;;;;9.00;99.90;;;;;;5035104;28;20000;-71
2023/01/30 12:27:43;;;;;;;;;;;9.00;99.90;;;;;;5035007;28;19991;-71
2023/01/30 12:30:20;;;;;;;;;;;8.90;99.90;;;;;;5038966;28;19904;-71
2023/01/30 12:32:45;;;;;;;;;;;8.90;99.90;;;;;;5033773;28;19912;-71
2023/01/30 12:35:16;;;;;;;;;;;8.80;99.90;;;;;;5035043;28;19908;-71
2023/01/30 12:37:55;;;;;;;;;;;8.80;99.90;;;;;;5020644;28;19916;-71
2023/01/30 12:40:39;;;;;;;;;;;8.90;99.90;;;;;;5035834;28;20004;-71
2023/01/30 12:43:10;;;;;;;;;;;8.90;99.90;;;;;;5036002;28;20567;-71
2023/01/30 12:45:39;;;;;;;;;;;8.90;99.90;;;;;;5033610;28;20298;-71
2023/01/30 12:48:07;;;;;;;;;;;9.00;99.90;;;;;;5029456;28;19955;-71
2023/01/30 12:50:53;;;;;;;;;;;9.00;99.90;;;;;;5043987;28;19991;-71
2023/01/30 12:53:18;;;;;;;;;;;9.10;99.90;;;;;;5032935;28;20002;-71
2023/01/30 12:56:02;;;;;;;;;;;9.20;99.90;;;;;;5032667;28;19940;-71
2023/01/30 12:58:33;;;;;;;;;;;9.20;99.90;;;;;;5046184;28;19912;-72
2023/01/30 13:01:14;;;;;;;;;;;9.20;99.90;;;;;;5020581;28;20291;-72
2023/01/30 13:03:48;;;;;;;;;;;9.20;99.90;;;;;;5044022;28;19917;-72
2023/01/30 13:06:32;;;;;;;;;;;9.20;99.90;;;;;;5038041;28;19916;-72
2023/01/30 13:09:05;;;;;;;;;;;9.20;99.90;;;;;;5034321;28;19905;-72
2023/01/30 13:11:37;;;;;;;;;;;9.20;99.90;;;;;;5034696;28;20042;-72
2023/01/30 13:14:14;;;;;;;;;;;9.20;99.90;;;;;;5035253;28;20284;-72
2023/01/30 13:16:59;;;;;;;;;;;9.20;99.90;;;;;;5049498;28;20282;-72
2023/01/30 13:19:40;;;;;;;;;;;9.20;99.90;;;;;;5045604;28;19912;-72
2023/01/30 13:22:31;;;;;;;;;;;9.20;99.90;;;;;;5042624;28;19904;-72
2023/01/30 13:24:57;;;;;;;;;;;9.30;99.90;;;;;;5045572;28;19921;-71
2023/01/30 13:27:23;;;;;;;;;;;9.30;99.90;;;;;;5050557;28;19919;-72
2023/01/30 13:29:50;;;;;;;;;;;9.30;99.90;;;;;;5048931;28;19933;-72
2023/01/30 13:32:24;;;;;;;;;;;9.30;99.90;;;;;;5038511;28;19909;-72
2023/01/30 13:34:51;;;;;;;;;;;9.30;99.90;;;;;;5045047;28;19916;-72
2023/01/30 13:37:18;;;;;;;;;;;9.30;99.90;;;;;;5048406;28;19983;-72
2023/01/30 13:39:57;;;;;;;;;;;9.30;99.90;;;;;;5049583;28;19916;-72
2023/01/30 13:42:26;;;;;;;;;;;9.20;99.90;;;;;;5039370;28;19955;-72
2023/01/30 13:44:52;;;;;;;;;;;9.20;99.90;;;;;;5046199;28;19917;-71
2023/01/30 13:47:38;;;;;;;;;;;9.20;99.90;;;;;;5048221;28;19909;-72
2023/01/30 13:50:16;;;;;;;;;;;9.20;99.90;;;;;;5041709;28;19917;-72
2023/01/30 13:52:56;;;;;;;;;;;9.30;99.90;;;;;;5042541;28;19943;-72
2023/01/30 13:55:25;;;;;;;;;;;9.30;99.90;;;;;;5046207;28;19916;-72
2023/01/30 13:57:59;;;;;;;;;;;9.30;99.90;;;;;;5041559;28;20610;-72
2023/01/30 14:00:27;;;;;;;;;;;9.30;99.90;;;;;;5041856;28;19916;-72
2023/01/30 14:03:01;;;;;;;;;;;9.30;99.90;;;;;;5051262;28;19944;-72
2023/01/30 14:05:47;;;;;;;;;;;9.30;99.90;;;;;;5042554;28;19909;-73
2023/01/30 14:08:17;;;;;;;;;;;9.30;99.90;;;;;;5002309;28;19991;-73
2023/01/30 14:10:43;;;;;;;;;;;9.30;99.90;;;;;;5036943;28;19917;-72
2023/01/30 14:13:12;;;;;;;;;;;9.30;99.90;;;;;;5036801;28;19999;-73
2023/01/30 14:15:52;;;;;;;;;;;9.30;99.90;;;;;;5039983;28;19997;-72
2023/01/30 14:18:32;;;;;;;;;;;9.20;99.90;;;;;;5040057;28;19910;-72
2023/01/30 14:21:10;;;;;;;;;;;9.20;99.90;;;;;;5045684;28;19932;-73
2023/01/30 14:23:35;;;;;;;;;;;9.10;99.90;;;;;;5038124;28;20240;-73
2023/01/30 14:26:01;;;;;;;;;;;9.10;99.90;;;;;;5046231;28;19916;-73
2023/01/30 14:28:27;;;;;;;;;;;9.10;99.90;;;;;;5046066;28;19920;-72
2023/01/30 14:30:53;;;;;;;;;;;9.10;99.90;;;;;;5047722;28;19974;-73
2023/01/30 14:33:22;;;;;;;;;;;9.10;99.90;;;;;;5042825;28;19999;-73
2023/01/30 14:36:07;;;;;;;;;;;9.00;99.90;;;;;;5042049;28;20038;-73
2023/01/30 14:38:33;;;;;;;;;;;9.10;99.90;;;;;;5040975;28;19924;-73
2023/01/30 14:40:59;;;;;;;;;;;9.10;99.90;;;;;;5029990;28;19931;-73
2023/01/30 14:43:24;;;;;;;;;;;9.20;99.90;;;;;;5047341;28;19921;-73
2023/01/30 14:45:51;;;;;;;;;;;9.20;99.90;;;;;;5044019;28;19909;-74
2023/01/30 14:48:36;;;;;;;;;;;9.20;99.90;;;;;;5049452;28;19909;-74
2023/01/30 14:51:20;;;;;;;;;;;9.10;99.90;;;;;;5027483;28;19917;-74